sensor_id;sensor_type;location;lat;lon;timestamp;temperature;humidity
6627;DHT22;3349;49.830;8.748;2024-01-30T00:00:23;0.70;99.90
6627;DHT22;3349;49.830;8.748;2024-01-30T00:02:50;0.60;99.90
6627;DHT22;3349;49.830;8.748;2024-01-30T00:05:18;0.60;99.90
6627;DHT22;3349;49.830;8.748;2024-01-30T00:07:44;0.60;99.90
6627;DHT22;3349;49.830;8.748;2024-01-30T00:10:10;0.60;99.90
6627;DHT22;3349;49.830;8.748;2024-01-30T00:12:37;0.60;99.90
6627;DHT22;3349;49.830;8.748;2024-01-30T00:15:04;0.60;99.90
6627;DHT22;3349;49.830;8.748;2024-01-30T00:17:34;0.50;99.90
6627;DHT22;3349;49.830;8.748;2024-01-30T00:20:00;0.50;99.90
6627;DHT22;3349;49.830;8.748;2024-01-30T00:22:32;0.50;99.90
6627;DHT22;3349;49.830;8.748;2024-01-30T00:24:58;0.50;99.90
6627;DHT22;3349;49.830;8.748;2024-01-30T00:27:25;0.50;99.90
6627;DHT22;3349;49.830;8.748;2024-01-30T00:29:52;0.50;99.90
6627;DHT22;3349;49.830;8.748;2024-01-30T00:32:19;0.50;99.90
6627;DHT22;3349;49.830;8.748;2024-01-30T00:34:45;0.50;99.90
6627;DHT22;3349;49.830;8.748;2024-01-30T00:37:12;0.50;99.90
6627;DHT22;3349;49.830;8.748;2024-01-30T00:39:40;0.50;99.90
6627;DHT22;3349;49.830;8.748;2024-01-30T00:42:07;0.50;99.90
6627;DHT22;3349;49.830;8.748;2024-01-30T00:44:35;0.50;99.90
6627;DHT22;3349;49.830;8.748;2024-01-30T00:47:02;0.60;99.90
6627;DHT22;3349;49.830;8.748;2024-01-30T00:49:29;0.50;99.90
6627;DHT22;3349;49.830;8.748;2024-01-30T00:51:56;0.50;99.90
6627;DHT22;3349;49.830;8.748;2024-01-30T00:54:22;0.50;99.90
6627;DHT22;3349;49.830;8.748;2024-01-30T00:56:50;0.40;99.90
6627;DHT22;3349;49.830;8.748;2024-01-30T00:59:17;0.40;99.90
6627;DHT22;3349;49.830;8.748;2024-01-30T01:01:44;0.40;99.90
6627;DHT22;3349;49.830;8.748;2024-01-30T01:04:10;0.40;99.90
6627;DHT22;3349;49.830;8.748;2024-01-30T01:06:37;0.40;99.90
6627;DHT22;3349;49.830;8.748;2024-01-30T01:09:04;0.40;99.90
6627;DHT22;3349;49.830;8.748;2024-01-30T01:11:30;0.40;99.90
6627;DHT22;3349;49.830;8.748;2024-01-30T01:13:58;0.40;99.90
6627;DHT22;3349;49.830;8.748;2024-01-30T01:16:25;0.50;99.90
6627;DHT22;3349;49.830;8.748;2024-01-30T01:18:52;0.50;99.90
6627;DHT22;3349;49.830;8.748;2024-01-30T01:21:19;0.50;99.90
6627;DHT22;3349;49.830;8.748;2024-01-30T01:23:45;0.50;99.90
6627;DHT22;3349;49.830;8.748;2024-01-30T01:26:12;0.50;99.90
6627;DHT22;3349;49.830;8.748;2024-01-30T01:28:40;0.50;99.90
6627;DHT22;3349;49.830;8.748;2024-01-30T01:31:08;0.60;99.90
6627;DHT22;3349;49.830;8.748;2024-01-30T01:33:35;0.60;99.90
6627;DHT22;3349;49.830;8.748;2024-01-30T01:36:03;0.50;99.90
6627;DHT22;3349;49.830;8.748;2024-01-30T01:38:30;0.40;99.90
6627;DHT22;3349;49.830;8.748;2024-01-30T01:40:57;0.40;99.90
6627;DHT22;3349;49.830;8.748;2024-01-30T01:43:23;0.50;99.90
6627;DHT22;3349;49.830;8.748;2024-01-30T01:45:50;0.40;99.90
6627;DHT22;3349;49.830;8.748;2024-01-30T01:48:18;0.40;99.90
6627;DHT22;3349;49.830;8.748;2024-01-30T01:50:45;0.40;99.90
6627;DHT22;3349;49.830;8.748;2024-01-30T01:53:12;0.40;99.90
6627;DHT22;3349;49.830;8.748;2024-01-30T01:55:39;0.30;99.90
6627;DHT22;3349;49.830;8.748;2024-01-30T01:58:06;0.30;99.90
6627;DHT22;3349;49.830;8.748;2024-01-30T02:00:34;0.30;99.90
6627;DHT22;3349;49.830;8.748;2024-01-30T02:03:05;0.20;99.90
6627;DHT22;3349;49.830;8.748;2024-01-30T02:05:34;0.20;99.90
6627;DHT22;3349;49.830;8.748;2024-01-30T02:08:01;0.20;99.90
6627;DHT22;3349;49.830;8.748;2024-01-30T02:10:28;0.20;99.90
6627;DHT22;3349;49.830;8.748;2024-01-30T02:12:55;0.20;99.90
6627;DHT22;3349;49.830;8.748;2024-01-30T02:15:22;0.20;99.90
6627;DHT22;3349;49.830;8.748;2024-01-30T02:17:48;0.20;99.90
6627;DHT22;3349;49.830;8.748;2024-01-30T02:20:15;0.20;99.90
6627;DHT22;3349;49.830;8.748;2024-01-30T02:22:43;0.10;99.90
6627;DHT22;3349;49.830;8.748;2024-01-30T02:25:10;0.20;99.90
6627;DHT22;3349;49.830;8.748;2024-01-30T02:27:37;0.20;99.90
6627;DHT22;3349;49.830;8.748;2024-01-30T02:30:04;0.10;99.90
6627;DHT22;3349;49.830;8.748;2024-01-30T02:32:31;0.10;99.90
6627;DHT22;3349;49.830;8.748;2024-01-30T02:34:58;0.10;99.90
6627;DHT22;3349;49.830;8.748;2024-01-30T02:37:25;0.10;99.90
6627;DHT22;3349;49.830;8.748;2024-01-30T02:39:52;0.00;99.90
6627;DHT22;3349;49.830;8.748;2024-01-30T02:42:19;0.00;99.90
6627;DHT22;3349;49.830;8.748;2024-01-30T02:44:46;0.00;99.90
6627;DHT22;3349;49.830;8.748;2024-01-30T02:47:13;0.00;99.90
6627;DHT22;3349;49.830;8.748;2024-01-30T02:49:39;-0.10;99.90
6627;DHT22;3349;49.830;8.748;2024-01-30T02:52:06;-0.10;99.90
6627;DHT22;3349;49.830;8.748;2024-01-30T02:54:33;-0.10;99.90
6627;DHT22;3349;49.830;8.748;2024-01-30T02:57:01;-0.10;99.90
6627;DHT22;3349;49.830;8.748;2024-01-30T02:59:27;-0.10;99.90
6627;DHT22;3349;49.830;8.748;2024-01-30T03:01:54;0.00;99.90
6627;DHT22;3349;49.830;8.748;2024-01-30T03:04:21;0.00;99.90
6627;DHT22;3349;49.830;8.748;2024-01-30T03:06:48;0.00;99.90
6627;DHT22;3349;49.830;8.748;2024-01-30T03:09:16;0.00;99.90
6627;DHT22;3349;49.830;8.748;2024-01-30T03:11:43;-0.10;99.90
6627;DHT22;3349;49.830;8.748;2024-01-30T03:14:12;-0.10;99.90
6627;DHT22;3349;49.830;8.748;2024-01-30T03:16:38;-0.10;99.90
6627;DHT22;3349;49.830;8.748;2024-01-30T03:19:06;-0.20;99.90
6627;DHT22;3349;49.830;8.748;2024-01-30T03:21:34;-0.20;99.90
6627;DHT22;3349;49.830;8.748;2024-01-30T03:24:01;-0.20;99.90
6627;DHT22;3349;49.830;8.748;2024-01-30T03:26:28;-0.30;99.90
6627;DHT22;3349;49.830;8.748;2024-01-30T03:28:54;-0.30;99.90
6627;DHT22;3349;49.830;8.748;2024-01-30T03:31:22;-0.30;99.90
6627;DHT22;3349;49.830;8.748;2024-01-30T03:33:49;-0.30;99.90
6627;DHT22;3349;49.830;8.748;2024-01-30T03:36:16;-0.20;99.90
6627;DHT22;3349;49.830;8.748;2024-01-30T03:38:42;-0.20;99.90
6627;DHT22;3349;49.830;8.748;2024-01-30T03:41:09;-0.20;99.90
6627;DHT22;3349;49.830;8.748;2024-01-30T03:43:36;-0.30;99.90
6627;DHT22;3349;49.830;8.748;2024-01-30T03:46:03;-0.20;99.90
6627;DHT22;3349;49.830;8.748;2024-01-30T03:48:31;-0.20;99.90
6627;DHT22;3349;49.830;8.748;2024-01-30T03:50:58;-0.20;99.90
6627;DHT22;3349;49.830;8.748;2024-01-30T03:53:25;-0.20;99.90
6627;DHT22;3349;49.830;8.748;2024-01-30T03:55:51;-0.20;99.90
6627;DHT22;3349;49.830;8.748;2024-01-30T03:58:18;-0.30;99.90
6627;DHT22;3349;49.830;8.748;2024-01-30T04:00:45;-0.30;99.90
6627;DHT22;3349;49.830;8.748;2024-01-30T04:03:11;-0.30;99.90
6627;DHT22;3349;49.830;8.748;2024-01-30T04:05:39;-0.30;99.90
6627;DHT22;3349;49.830;8.748;2024-01-30T04:08:07;-0.30;99.90
6627;DHT22;3349;49.830;8.748;2024-01-30T04:10:34;-0.30;99.90
6627;DHT22;3349;49.830;8.748;2024-01-30T04:13:00;-0.30;99.90
6627;DHT22;3349;49.830;8.748;2024-01-30T04:15:27;-0.30;99.90
6627;DHT22;3349;49.830;8.748;2024-01-30T04:17:57;-0.30;99.90
6627;DHT22;3349;49.830;8.748;2024-01-30T04:20:24;-0.30;99.90
6627;DHT22;3349;49.830;8.748;2024-01-30T04:22:52;-0.40;99.90
6627;DHT22;3349;49.830;8.748;2024-01-30T04:25:18;-0.30;99.90
6627;DHT22;3349;49.830;8.748;2024-01-30T04:27:46;-0.30;99.90
6627;DHT22;3349;49.830;8.748;2024-01-30T04:30:13;-0.20;99.90
6627;DHT22;3349;49.830;8.748;2024-01-30T04:32:40;-0.30;99.90
6627;DHT22;3349;49.830;8.748;2024-01-30T04:35:07;-0.20;99.90
6627;DHT22;3349;49.830;8.748;2024-01-30T04:37:33;-0.30;99.90
6627;DHT22;3349;49.830;8.748;2024-01-30T04:40:01;-0.30;99.90
6627;DHT22;3349;49.830;8.748;2024-01-30T04:42:28;-0.30;99.90
6627;DHT22;3349;49.830;8.748;2024-01-30T04:44:55;-0.40;99.90
6627;DHT22;3349;49.830;8.748;2024-01-30T04:47:21;-0.30;99.90
6627;DHT22;3349;49.830;8.748;2024-01-30T04:49:48;-0.30;99.90
6627;DHT22;3349;49.830;8.748;2024-01-30T04:52:16;-0.40;99.90
6627;DHT22;3349;49.830;8.748;2024-01-30T04:54:42;-0.40;99.90
6627;DHT22;3349;49.830;8.748;2024-01-30T04:57:10;-0.40;99.90
6627;DHT22;3349;49.830;8.748;2024-01-30T04:59:37;-0.30;99.90
6627;DHT22;3349;49.830;8.748;2024-01-30T05:02:04;-0.40;99.90
6627;DHT22;3349;49.830;8.748;2024-01-30T05:04:31;-0.40;99.90
6627;DHT22;3349;49.830;8.748;2024-01-30T05:06:58;-0.40;99.90
6627;DHT22;3349;49.830;8.748;2024-01-30T05:09:24;-0.30;99.90
6627;DHT22;3349;49.830;8.748;2024-01-30T05:11:51;-0.40;99.90
6627;DHT22;3349;49.830;8.748;2024-01-30T05:14:19;-0.40;99.90
6627;DHT22;3349;49.830;8.748;2024-01-30T05:16:46;-0.40;99.90
6627;DHT22;3349;49.830;8.748;2024-01-30T05:19:13;-0.40;99.90
6627;DHT22;3349;49.830;8.748;2024-01-30T05:21:41;-0.40;99.90
6627;DHT22;3349;49.830;8.748;2024-01-30T05:24:07;-0.40;99.90
6627;DHT22;3349;49.830;8.748;2024-01-30T05:26:35;-0.40;99.90
6627;DHT22;3349;49.830;8.748;2024-01-30T05:29:02;-0.40;99.90
6627;DHT22;3349;49.830;8.748;2024-01-30T05:31:30;-0.40;99.90
6627;DHT22;3349;49.830;8.748;2024-01-30T05:33:57;-0.40;99.90
6627;DHT22;3349;49.830;8.748;2024-01-30T05:36:24;-0.40;99.90
6627;DHT22;3349;49.830;8.748;2024-01-30T05:38:50;-0.40;99.90
6627;DHT22;3349;49.830;8.748;2024-01-30T05:41:17;-0.30;99.90
6627;DHT22;3349;49.830;8.748;2024-01-30T05:43:44;-0.30;99.90
6627;DHT22;3349;49.830;8.748;2024-01-30T05:46:11;-0.40;99.90
6627;DHT22;3349;49.830;8.748;2024-01-30T05:48:39;-0.30;99.90
6627;DHT22;3349;49.830;8.748;2024-01-30T05:51:07;-0.30;99.90
6627;DHT22;3349;49.830;8.748;2024-01-30T05:53:34;-0.40;99.90
6627;DHT22;3349;49.830;8.748;2024-01-30T05:56:01;-0.40;99.90
6627;DHT22;3349;49.830;8.748;2024-01-30T05:58:28;-0.40;99.90
6627;DHT22;3349;49.830;8.748;2024-01-30T06:00:56;-0.40;99.90
6627;DHT22;3349;49.830;8.748;2024-01-30T06:03:23;-0.40;99.90
6627;DHT22;3349;49.830;8.748;2024-01-30T06:05:51;-0.30;99.90
6627;DHT22;3349;49.830;8.748;2024-01-30T06:08:18;-0.40;99.90
6627;DHT22;3349;49.830;8.748;2024-01-30T06:10:44;-0.40;99.90
6627;DHT22;3349;49.830;8.748;2024-01-30T06:13:11;-0.30;99.90
6627;DHT22;3349;49.830;8.748;2024-01-30T06:15:38;-0.40;99.90
6627;DHT22;3349;49.830;8.748;2024-01-30T06:18:05;-0.30;99.90
6627;DHT22;3349;49.830;8.748;2024-01-30T06:20:31;-0.40;99.90
6627;DHT22;3349;49.830;8.748;2024-01-30T06:22:59;-0.40;99.90
6627;DHT22;3349;49.830;8.748;2024-01-30T06:25:26;-0.30;99.90
6627;DHT22;3349;49.830;8.748;2024-01-30T06:27:53;-0.40;99.90
6627;DHT22;3349;49.830;8.748;2024-01-30T06:30:19;-0.50;99.90
6627;DHT22;3349;49.830;8.748;2024-01-30T06:32:46;-0.50;99.90
6627;DHT22;3349;49.830;8.748;2024-01-30T06:35:13;-0.50;99.90
6627;DHT22;3349;49.830;8.748;2024-01-30T06:37:39;-0.50;99.90
6627;DHT22;3349;49.830;8.748;2024-01-30T06:40:08;-0.50;99.90
6627;DHT22;3349;49.830;8.748;2024-01-30T06:42:35;-0.40;99.90
6627;DHT22;3349;49.830;8.748;2024-01-30T06:45:02;-0.40;99.90
6627;DHT22;3349;49.830;8.748;2024-01-30T06:47:29;-0.50;99.90
6627;DHT22;3349;49.830;8.748;2024-01-30T06:49:56;-0.40;99.90
6627;DHT22;3349;49.830;8.748;2024-01-30T06:52:23;-0.30;99.90
6627;DHT22;3349;49.830;8.748;2024-01-30T06:54:49;-0.30;99.90
6627;DHT22;3349;49.830;8.748;2024-01-30T06:57:17;-0.30;99.90
6627;DHT22;3349;49.830;8.748;2024-01-30T06:59:44;-0.30;99.90
6627;DHT22;3349;49.830;8.748;2024-01-30T07:02:11;-0.30;99.90
6627;DHT22;3349;49.830;8.748;2024-01-30T07:04:37;-0.30;99.90
6627;DHT22;3349;49.830;8.748;2024-01-30T07:07:04;-0.30;99.90
6627;DHT22;3349;49.830;8.748;2024-01-30T07:09:37;-0.30;99.90
6627;DHT22;3349;49.830;8.748;2024-01-30T07:12:04;-0.30;99.90
6627;DHT22;3349;49.830;8.748;2024-01-30T07:14:32;-0.20;99.90
6627;DHT22;3349;49.830;8.748;2024-01-30T07:16:59;-0.20;99.90
6627;DHT22;3349;49.830;8.748;2024-01-30T07:19:26;-0.20;99.90
6627;DHT22;3349;49.830;8.748;2024-01-30T07:21:52;-0.20;99.90
6627;DHT22;3349;49.830;8.748;2024-01-30T07:24:19;-0.10;99.90
6627;DHT22;3349;49.830;8.748;2024-01-30T07:26:46;-0.10;99.90
6627;DHT22;3349;49.830;8.748;2024-01-30T07:29:12;-0.10;99.90
6627;DHT22;3349;49.830;8.748;2024-01-30T07:31:40;-0.10;99.90
6627;DHT22;3349;49.830;8.748;2024-01-30T07:34:07;0.00;99.90
6627;DHT22;3349;49.830;8.748;2024-01-30T07:36:33;0.00;99.90
6627;DHT22;3349;49.830;8.748;2024-01-30T07:39:00;0.00;99.90
6627;DHT22;3349;49.830;8.748;2024-01-30T07:41:27;0.10;99.90
6627;DHT22;3349;49.830;8.748;2024-01-30T07:43:53;0.10;99.90
6627;DHT22;3349;49.830;8.748;2024-01-30T07:46:20;0.20;99.90
6627;DHT22;3349;49.830;8.748;2024-01-30T07:48:48;0.30;99.90
6627;DHT22;3349;49.830;8.748;2024-01-30T07:51:15;0.30;99.90
6627;DHT22;3349;49.830;8.748;2024-01-30T07:53:41;0.40;99.90
6627;DHT22;3349;49.830;8.748;2024-01-30T08:02:52;0.60;99.90
6627;DHT22;3349;49.830;8.748;2024-01-30T08:05:21;0.70;99.90
6627;DHT22;3349;49.830;8.748;2024-01-30T08:07:48;0.80;99.90
6627;DHT22;3349;49.830;8.748;2024-01-30T08:10:15;0.90;99.90
6627;DHT22;3349;49.830;8.748;2024-01-30T08:12:43;1.00;99.90
6627;DHT22;3349;49.830;8.748;2024-01-30T08:15:11;1.00;99.90
6627;DHT22;3349;49.830;8.748;2024-01-30T08:17:38;1.10;99.90
6627;DHT22;3349;49.830;8.748;2024-01-30T08:20:06;1.20;99.90
6627;DHT22;3349;49.830;8.748;2024-01-30T08:22:35;1.30;99.90
6627;DHT22;3349;49.830;8.748;2024-01-30T08:25:01;1.40;99.90
6627;DHT22;3349;49.830;8.748;2024-01-30T08:27:28;1.50;99.90
6627;DHT22;3349;49.830;8.748;2024-01-30T08:29:55;1.50;99.90
6627;DHT22;3349;49.830;8.748;2024-01-30T08:32:21;1.60;99.90
6627;DHT22;3349;49.830;8.748;2024-01-30T08:34:49;1.70;99.90
6627;DHT22;3349;49.830;8.748;2024-01-30T08:37:15;1.70;99.90
6627;DHT22;3349;49.830;8.748;2024-01-30T08:39:44;1.80;99.90
6627;DHT22;3349;49.830;8.748;2024-01-30T08:42:11;1.90;99.90
6627;DHT22;3349;49.830;8.748;2024-01-30T08:44:37;2.00;99.90
6627;DHT22;3349;49.830;8.748;2024-01-30T08:47:05;2.10;99.90
6627;DHT22;3349;49.830;8.748;2024-01-30T08:49:31;2.30;99.90
6627;DHT22;3349;49.830;8.748;2024-01-30T08:51:58;2.40;99.90
6627;DHT22;3349;49.830;8.748;2024-01-30T08:54:25;2.50;99.90
6627;DHT22;3349;49.830;8.748;2024-01-30T08:56:53;2.70;99.90
6627;DHT22;3349;49.830;8.748;2024-01-30T08:59:21;2.90;99.90
6627;DHT22;3349;49.830;8.748;2024-01-30T09:01:48;3.00;99.90
6627;DHT22;3349;49.830;8.748;2024-01-30T09:04:18;3.20;99.90
6627;DHT22;3349;49.830;8.748;2024-01-30T09:06:45;3.40;99.90
6627;DHT22;3349;49.830;8.748;2024-01-30T09:09:12;3.50;99.90
6627;DHT22;3349;49.830;8.748;2024-01-30T09:11:39;3.60;99.90
6627;DHT22;3349;49.830;8.748;2024-01-30T09:14:07;3.80;99.90
6627;DHT22;3349;49.830;8.748;2024-01-30T09:16:34;3.90;99.90
6627;DHT22;3349;49.830;8.748;2024-01-30T09:19:02;4.00;99.90
6627;DHT22;3349;49.830;8.748;2024-01-30T09:21:28;4.10;99.90
6627;DHT22;3349;49.830;8.748;2024-01-30T09:24:01;4.30;99.90
6627;DHT22;3349;49.830;8.748;2024-01-30T09:26:28;4.40;99.90
6627;DHT22;3349;49.830;8.748;2024-01-30T09:28:55;4.50;99.90
6627;DHT22;3349;49.830;8.748;2024-01-30T09:31:23;4.60;99.90
6627;DHT22;3349;49.830;8.748;2024-01-30T09:33:49;4.60;99.90
6627;DHT22;3349;49.830;8.748;2024-01-30T09:36:19;4.80;99.90
6627;DHT22;3349;49.830;8.748;2024-01-30T09:38:46;4.90;99.90
6627;DHT22;3349;49.830;8.748;2024-01-30T09:41:13;4.90;99.90
6627;DHT22;3349;49.830;8.748;2024-01-30T09:43:39;5.10;99.90
6627;DHT22;3349;49.830;8.748;2024-01-30T09:46:09;5.20;99.90
6627;DHT22;3349;49.830;8.748;2024-01-30T09:48:40;5.30;99.90
6627;DHT22;3349;49.830;8.748;2024-01-30T09:51:08;5.40;99.90
6627;DHT22;3349;49.830;8.748;2024-01-30T09:53:36;5.60;99.90
6627;DHT22;3349;49.830;8.748;2024-01-30T09:56:03;5.70;99.90
6627;DHT22;3349;49.830;8.748;2024-01-30T09:58:30;5.90;99.90
6627;DHT22;3349;49.830;8.748;2024-01-30T10:00:57;6.10;99.90
6627;DHT22;3349;49.830;8.748;2024-01-30T10:03:23;6.30;99.90
6627;DHT22;3349;49.830;8.748;2024-01-30T10:05:52;6.40;99.50
6627;DHT22;3349;49.830;8.748;2024-01-30T10:08:19;6.60;98.90
6627;DHT22;3349;49.830;8.748;2024-01-30T10:10:46;6.70;97.80
6627;DHT22;3349;49.830;8.748;2024-01-30T10:13:13;6.90;97.40
6627;DHT22;3349;49.830;8.748;2024-01-30T10:15:39;7.10;96.60
6627;DHT22;3349;49.830;8.748;2024-01-30T10:18:06;7.30;95.60
6627;DHT22;3349;49.830;8.748;2024-01-30T10:20:34;7.40;93.80
6627;DHT22;3349;49.830;8.748;2024-01-30T10:23:02;7.50;93.80
6627;DHT22;3349;49.830;8.748;2024-01-30T10:25:30;7.70;93.90
6627;DHT22;3349;49.830;8.748;2024-01-30T10:27:57;7.80;92.40
6627;DHT22;3349;49.830;8.748;2024-01-30T10:30:24;7.90;92.10
6627;DHT22;3349;49.830;8.748;2024-01-30T10:32:51;8.00;91.70
6627;DHT22;3349;49.830;8.748;2024-01-30T10:35:17;8.20;91.90
6627;DHT22;3349;49.830;8.748;2024-01-30T10:37:47;8.40;91.50
6627;DHT22;3349;49.830;8.748;2024-01-30T10:40:15;8.50;90.50
6627;DHT22;3349;49.830;8.748;2024-01-30T10:42:43;8.60;88.90
6627;DHT22;3349;49.830;8.748;2024-01-30T10:45:11;8.80;85.90
6627;DHT22;3349;49.830;8.748;2024-01-30T10:47:40;8.90;84.50
6627;DHT22;3349;49.830;8.748;2024-01-30T10:50:08;9.10;82.20
6627;DHT22;3349;49.830;8.748;2024-01-30T10:52:36;9.30;79.90
6627;DHT22;3349;49.830;8.748;2024-01-30T10:55:05;9.30;75.70
6627;DHT22;3349;49.830;8.748;2024-01-30T10:57:35;9.30;74.40
6627;DHT22;3349;49.830;8.748;2024-01-30T11:00:03;9.40;74.60
6627;DHT22;3349;49.830;8.748;2024-01-30T11:02:36;9.60;73.50
6627;DHT22;3349;49.830;8.748;2024-01-30T11:05:04;9.60;74.30
6627;DHT22;3349;49.830;8.748;2024-01-30T11:07:31;9.80;74.90
6627;DHT22;3349;49.830;8.748;2024-01-30T11:10:00;9.80;74.50
6627;DHT22;3349;49.830;8.748;2024-01-30T11:12:30;10.00;73.40
6627;DHT22;3349;49.830;8.748;2024-01-30T11:15:03;10.10;73.20
6627;DHT22;3349;49.830;8.748;2024-01-30T11:17:41;10.30;72.60
6627;DHT22;3349;49.830;8.748;2024-01-30T11:20:10;10.40;70.70
6627;DHT22;3349;49.830;8.748;2024-01-30T11:22:37;10.40;68.80
6627;DHT22;3349;49.830;8.748;2024-01-30T11:25:04;10.60;69.50
6627;DHT22;3349;49.830;8.748;2024-01-30T11:27:31;10.80;67.40
6627;DHT22;3349;49.830;8.748;2024-01-30T11:30:02;11.00;66.30
6627;DHT22;3349;49.830;8.748;2024-01-30T11:32:29;11.60;64.90
6627;DHT22;3349;49.830;8.748;2024-01-30T11:34:56;12.70;60.10
6627;DHT22;3349;49.830;8.748;2024-01-30T11:37:25;13.30;57.60
6627;DHT22;3349;49.830;8.748;2024-01-30T11:39:53;13.70;54.60
6627;DHT22;3349;49.830;8.748;2024-01-30T11:42:22;13.70;52.80
6627;DHT22;3349;49.830;8.748;2024-01-30T11:44:50;13.90;52.80
6627;DHT22;3349;49.830;8.748;2024-01-30T11:47:18;13.90;51.70
6627;DHT22;3349;49.830;8.748;2024-01-30T11:49:45;13.90;51.70
6627;DHT22;3349;49.830;8.748;2024-01-30T11:52:12;14.70;51.60
6627;DHT22;3349;49.830;8.748;2024-01-30T11:54:40;15.30;49.80
6627;DHT22;3349;49.830;8.748;2024-01-30T11:57:06;15.10;49.30
6627;DHT22;3349;49.830;8.748;2024-01-30T11:59:33;15.00;49.00
6627;DHT22;3349;49.830;8.748;2024-01-30T12:02:00;14.50;48.80
6627;DHT22;3349;49.830;8.748;2024-01-30T12:04:29;13.90;49.70
6627;DHT22;3349;49.830;8.748;2024-01-30T12:06:56;13.60;51.00
6627;DHT22;3349;49.830;8.748;2024-01-30T12:09:23;13.20;51.10
6627;DHT22;3349;49.830;8.748;2024-01-30T12:11:49;13.00;51.70
6627;DHT22;3349;49.830;8.748;2024-01-30T12:14:17;12.70;52.20
6627;DHT22;3349;49.830;8.748;2024-01-30T12:16:48;12.60;53.00
6627;DHT22;3349;49.830;8.748;2024-01-30T12:19:21;12.50;53.30
6627;DHT22;3349;49.830;8.748;2024-01-30T12:21:54;12.40;53.10
6627;DHT22;3349;49.830;8.748;2024-01-30T12:24:20;12.30;53.00
6627;DHT22;3349;49.830;8.748;2024-01-30T12:26:47;12.30;53.90
6627;DHT22;3349;49.830;8.748;2024-01-30T12:29:15;12.10;53.60
6627;DHT22;3349;49.830;8.748;2024-01-30T12:31:42;12.10;54.20
6627;DHT22;3349;49.830;8.748;2024-01-30T12:34:09;12.30;54.70
6627;DHT22;3349;49.830;8.748;2024-01-30T12:36:35;12.70;54.70
6627;DHT22;3349;49.830;8.748;2024-01-30T12:39:04;13.20;53.50
6627;DHT22;3349;49.830;8.748;2024-01-30T12:41:30;13.70;51.60
6627;DHT22;3349;49.830;8.748;2024-01-30T12:43:58;13.80;51.60
6627;DHT22;3349;49.830;8.748;2024-01-30T12:46:27;13.80;51.00
6627;DHT22;3349;49.830;8.748;2024-01-30T12:48:55;13.60;51.40
6627;DHT22;3349;49.830;8.748;2024-01-30T12:51:21;13.60;51.40
6627;DHT22;3349;49.830;8.748;2024-01-30T12:53:48;13.50;51.30
6627;DHT22;3349;49.830;8.748;2024-01-30T12:56:16;13.40;51.60
6627;DHT22;3349;49.830;8.748;2024-01-30T12:58:43;13.40;52.10
6627;DHT22;3349;49.830;8.748;2024-01-30T13:01:10;13.40;52.00
6627;DHT22;3349;49.830;8.748;2024-01-30T13:03:36;13.40;52.00
6627;DHT22;3349;49.830;8.748;2024-01-30T13:06:03;13.40;51.50
6627;DHT22;3349;49.830;8.748;2024-01-30T13:08:30;13.20;51.50
6627;DHT22;3349;49.830;8.748;2024-01-30T13:10:57;13.00;52.20
6627;DHT22;3349;49.830;8.748;2024-01-30T13:13:25;12.80;52.40
6627;DHT22;3349;49.830;8.748;2024-01-30T13:15:51;12.60;52.80
6627;DHT22;3349;49.830;8.748;2024-01-30T13:18:18;12.60;53.10
6627;DHT22;3349;49.830;8.748;2024-01-30T13:20:45;12.60;53.40
6627;DHT22;3349;49.830;8.748;2024-01-30T13:23:11;12.70;53.20
6627;DHT22;3349;49.830;8.748;2024-01-30T13:25:38;12.80;53.10
6627;DHT22;3349;49.830;8.748;2024-01-30T13:28:05;12.70;53.30
6627;DHT22;3349;49.830;8.748;2024-01-30T13:30:33;12.70;52.80
6627;DHT22;3349;49.830;8.748;2024-01-30T13:32:59;12.80;53.70
6627;DHT22;3349;49.830;8.748;2024-01-30T13:35:26;13.00;52.40
6627;DHT22;3349;49.830;8.748;2024-01-30T13:37:53;13.20;51.50
6627;DHT22;3349;49.830;8.748;2024-01-30T13:40:19;13.30;51.30
6627;DHT22;3349;49.830;8.748;2024-01-30T13:42:47;13.40;51.20
6627;DHT22;3349;49.830;8.748;2024-01-30T13:45:14;13.20;51.10
6627;DHT22;3349;49.830;8.748;2024-01-30T13:47:42;13.00;51.70
6627;DHT22;3349;49.830;8.748;2024-01-30T13:50:09;12.70;52.40
6627;DHT22;3349;49.830;8.748;2024-01-30T13:52:40;12.60;53.00
6627;DHT22;3349;49.830;8.748;2024-01-30T13:55:07;12.50;53.60
6627;DHT22;3349;49.830;8.748;2024-01-30T13:57:35;12.30;53.90
6627;DHT22;3349;49.830;8.748;2024-01-30T14:00:02;12.10;54.20
6627;DHT22;3349;49.830;8.748;2024-01-30T14:02:30;11.90;54.80
6627;DHT22;3349;49.830;8.748;2024-01-30T14:04:58;11.70;55.90
6627;DHT22;3349;49.830;8.748;2024-01-30T14:07:25;11.80;56.40
6627;DHT22;3349;49.830;8.748;2024-01-30T14:09:52;11.60;57.80
6627;DHT22;3349;49.830;8.748;2024-01-30T14:12:18;11.50;57.70
6627;DHT22;3349;49.830;8.748;2024-01-30T14:14:45;11.50;57.90
6627;DHT22;3349;49.830;8.748;2024-01-30T14:17:12;11.50;58.50
6627;DHT22;3349;49.830;8.748;2024-01-30T14:19:38;11.50;58.80
6627;DHT22;3349;49.830;8.748;2024-01-30T14:22:06;11.50;59.30
6627;DHT22;3349;49.830;8.748;2024-01-30T14:24:33;11.40;60.10
6627;DHT22;3349;49.830;8.748;2024-01-30T14:27:00;11.40;61.20
6627;DHT22;3349;49.830;8.748;2024-01-30T14:29:26;11.30;61.60
6627;DHT22;3349;49.830;8.748;2024-01-30T14:31:53;11.20;60.70
6627;DHT22;3349;49.830;8.748;2024-01-30T14:34:20;11.10;61.10
6627;DHT22;3349;49.830;8.748;2024-01-30T14:36:47;10.90;61.30
6627;DHT22;3349;49.830;8.748;2024-01-30T14:39:15;10.80;61.70
6627;DHT22;3349;49.830;8.748;2024-01-30T14:41:41;10.70;62.10
6627;DHT22;3349;49.830;8.748;2024-01-30T14:44:08;10.60;63.30
6627;DHT22;3349;49.830;8.748;2024-01-30T14:46:35;10.60;64.10
6627;DHT22;3349;49.830;8.748;2024-01-30T14:49:02;10.50;64.30
6627;DHT22;3349;49.830;8.748;2024-01-30T14:51:31;10.50;66.20
6627;DHT22;3349;49.830;8.748;2024-01-30T14:53:58;10.50;66.50
6627;DHT22;3349;49.830;8.748;2024-01-30T14:56:26;10.50;66.80
6627;DHT22;3349;49.830;8.748;2024-01-30T14:58:53;10.50;66.70
6627;DHT22;3349;49.830;8.748;2024-01-30T15:01:20;10.30;66.00
6627;DHT22;3349;49.830;8.748;2024-01-30T15:03:47;10.20;66.40
6627;DHT22;3349;49.830;8.748;2024-01-30T15:06:13;10.10;66.60
6627;DHT22;3349;49.830;8.748;2024-01-30T15:08:40;10.00;66.70
6627;DHT22;3349;49.830;8.748;2024-01-30T15:11:07;9.90;68.20
6627;DHT22;3349;49.830;8.748;2024-01-30T15:13:35;9.80;68.80
6627;DHT22;3349;49.830;8.748;2024-01-30T15:16:02;9.70;69.20
6627;DHT22;3349;49.830;8.748;2024-01-30T15:18:31;9.70;70.00
6627;DHT22;3349;49.830;8.748;2024-01-30T15:20:57;9.60;70.30
6627;DHT22;3349;49.830;8.748;2024-01-30T15:23:24;9.60;71.10
6627;DHT22;3349;49.830;8.748;2024-01-30T15:25:51;9.50;71.50
6627;DHT22;3349;49.830;8.748;2024-01-30T15:28:17;9.50;73.10
6627;DHT22;3349;49.830;8.748;2024-01-30T15:30:46;9.40;74.60
6627;DHT22;3349;49.830;8.748;2024-01-30T15:33:12;9.40;74.90
6627;DHT22;3349;49.830;8.748;2024-01-30T15:35:39;9.40;75.30
6627;DHT22;3349;49.830;8.748;2024-01-30T15:38:07;9.30;75.70
6627;DHT22;3349;49.830;8.748;2024-01-30T15:40:34;9.30;76.00
6627;DHT22;3349;49.830;8.748;2024-01-30T15:43:00;9.20;76.60
6627;DHT22;3349;49.830;8.748;2024-01-30T15:45:27;9.20;76.90
6627;DHT22;3349;49.830;8.748;2024-01-30T15:47:55;9.10;77.40
6627;DHT22;3349;49.830;8.748;2024-01-30T15:50:23;9.00;78.10
6627;DHT22;3349;49.830;8.748;2024-01-30T15:52:49;8.90;79.00
6627;DHT22;3349;49.830;8.748;2024-01-30T15:55:16;8.80;79.80
6627;DHT22;3349;49.830;8.748;2024-01-30T15:57:45;8.70;80.80
6627;DHT22;3349;49.830;8.748;2024-01-30T16:00:13;8.60;81.70
6627;DHT22;3349;49.830;8.748;2024-01-30T16:02:40;8.50;82.50
6627;DHT22;3349;49.830;8.748;2024-01-30T16:05:08;8.40;83.60
6627;DHT22;3349;49.830;8.748;2024-01-30T16:07:35;8.30;84.70
6627;DHT22;3349;49.830;8.748;2024-01-30T16:10:01;8.30;86.60
6627;DHT22;3349;49.830;8.748;2024-01-30T16:12:28;8.30;89.70
6627;DHT22;3349;49.830;8.748;2024-01-30T16:14:55;8.40;90.20